createdAt,value
2022-10-28T00:01:24.841Z,15.37
2022-10-28T00:03:55.224Z,15.28
2022-10-28T00:06:25.381Z,15.15
2022-10-28T00:08:54.118Z,14.91
2022-10-28T00:11:26.036Z,15.37
2022-10-28T00:13:55.089Z,15.34
2022-10-28T00:16:25.059Z,15.41
2022-10-28T00:18:54.330Z,15.23
2022-10-28T00:21:25.143Z,15.30
2022-10-28T00:23:54.016Z,15.33
2022-10-28T00:26:25.964Z,15.31
2022-10-28T00:28:56.580Z,15.39
2022-10-28T00:31:28.169Z,15.20
2022-10-28T00:33:56.963Z,15.42
2022-10-28T00:36:28.089Z,15.35
2022-10-28T00:38:57.666Z,15.11
2022-10-28T00:41:29.019Z,15.34
2022-10-28T00:43:59.600Z,15.20
2022-10-28T00:46:32.044Z,15.22
2022-10-28T00:49:04.226Z,15.16
2022-10-28T00:51:35.188Z,15.11
2022-10-28T00:54:05.903Z,14.90
2022-10-28T00:56:42.089Z,14.94
2022-10-28T00:59:15.000Z,14.86
2022-10-28T01:01:43.613Z,15.19
2022-10-28T01:04:13.360Z,15.25
2022-10-28T01:06:43.132Z,14.90
2022-10-28T01:09:11.541Z,15.33
2022-10-28T01:11:56.219Z,15.19
2022-10-28T01:14:43.820Z,15.15
2022-10-28T01:17:29.091Z,15.26
2022-10-28T01:20:37.668Z,15.18
2022-10-28T01:23:16.679Z,15.15
2022-10-28T01:26:04.886Z,15.11
2022-10-28T01:29:05.428Z,15.14
2022-10-28T01:31:42.968Z,15.35
2022-10-28T01:34:20.227Z,15.22
2022-10-28T01:36:59.052Z,14.85
2022-10-28T01:39:34.428Z,15.10
2022-10-28T01:42:15.687Z,15.19
2022-10-28T01:44:50.431Z,15.09
2022-10-28T01:47:24.044Z,14.98
2022-10-28T01:50:00.290Z,14.98
2022-10-28T01:52:31.886Z,15.02
2022-10-28T01:55:04.687Z,14.74
2022-10-28T01:57:36.561Z,14.94
2022-10-28T02:00:06.391Z,15.08
2022-10-28T02:02:38.982Z,14.94
2022-10-28T02:05:29.289Z,14.96
2022-10-28T02:08:05.716Z,15.03
2022-10-28T02:10:38.586Z,14.87
2022-10-28T02:13:12.449Z,15.04
2022-10-28T02:15:48.175Z,15.03
2022-10-28T02:18:28.429Z,15.09
2022-10-28T02:21:03.807Z,14.94
2022-10-28T02:23:44.778Z,14.35
2022-10-28T02:26:22.130Z,15.02
2022-10-28T02:28:56.483Z,14.84
2022-10-28T02:31:28.171Z,15.07
2022-10-28T02:34:02.784Z,14.94
2022-10-28T02:36:36.524Z,14.45
2022-10-28T02:39:06.044Z,14.87
2022-10-28T02:41:41.273Z,14.96
2022-10-28T02:44:12.985Z,14.58
2022-10-28T02:46:44.896Z,14.99
2022-10-28T02:49:16.188Z,14.96
2022-10-28T02:51:48.101Z,14.83
2022-10-28T02:54:19.137Z,14.69
2022-10-28T02:56:53.120Z,15.08
2022-10-28T02:59:21.696Z,14.56
2022-10-28T03:01:50.482Z,14.85
2022-10-28T03:04:20.480Z,14.95
2022-10-28T03:06:48.868Z,14.60
2022-10-28T03:09:17.397Z,15.11
2022-10-28T03:11:45.722Z,15.14
2022-10-28T03:14:15.440Z,14.99
2022-10-28T03:16:43.978Z,15.06
2022-10-28T03:19:12.686Z,15.09
2022-10-28T03:21:42.495Z,15.03
2022-10-28T03:24:10.994Z,14.85
2022-10-28T03:26:39.411Z,14.91
2022-10-28T03:29:07.889Z,15.22
2022-10-28T03:31:36.289Z,14.86
2022-10-28T03:34:04.744Z,15.16
2022-10-28T03:36:33.185Z,15.13
2022-10-28T03:39:03.490Z,14.97
2022-10-28T03:41:32.095Z,15.07
2022-10-28T03:44:00.812Z,14.34
2022-10-28T03:46:31.077Z,14.38
2022-10-28T03:49:02.024Z,14.92
2022-10-28T03:51:30.468Z,15.00
2022-10-28T03:53:58.882Z,15.15
2022-10-28T03:56:28.655Z,14.92
2022-10-28T03:58:57.049Z,15.00
2022-10-28T04:01:26.036Z,15.19
2022-10-28T04:03:54.540Z,15.12
2022-10-28T04:06:23.017Z,15.09
2022-10-28T04:08:51.496Z,15.11
2022-10-28T04:11:20.186Z,15.26
2022-10-28T04:13:49.963Z,15.36
2022-10-28T04:16:18.467Z,15.37
2022-10-28T04:18:46.881Z,15.37
2022-10-28T04:21:15.214Z,15.32
2022-10-28T04:23:44.299Z,15.35
2022-10-28T04:26:12.737Z,15.19
2022-10-28T04:28:41.184Z,15.22
2022-10-28T04:31:12.379Z,15.21
2022-10-28T04:33:40.768Z,14.70
2022-10-28T04:36:09.506Z,15.22
2022-10-28T04:38:37.915Z,15.15
2022-10-28T04:41:06.583Z,15.11
2022-10-28T04:43:34.943Z,15.12
2022-10-28T04:46:06.230Z,15.02
2022-10-28T04:48:36.664Z,15.23
2022-10-28T04:51:05.229Z,15.00
2022-10-28T04:53:33.651Z,15.32
2022-10-28T04:56:02.037Z,15.29
2022-10-28T04:58:30.754Z,15.35
2022-10-28T05:00:59.086Z,15.42
2022-10-28T05:03:27.552Z,15.43
2022-10-28T05:05:57.367Z,15.39
2022-10-28T05:08:25.798Z,13.34
2022-10-28T05:10:54.348Z,15.37
2022-10-28T05:13:22.826Z,15.39
2022-10-28T05:15:51.599Z,15.12
2022-10-28T05:18:20.289Z,15.50
2022-10-28T05:20:52.966Z,15.51
2022-10-28T05:23:25.891Z,15.55
2022-10-28T05:25:58.328Z,15.64
2022-10-28T05:28:26.718Z,15.53
2022-10-28T05:30:55.011Z,15.46
2022-10-28T05:33:23.947Z,15.61
2022-10-28T05:35:52.690Z,15.36
2022-10-28T05:38:22.548Z,15.48
2022-10-28T05:40:50.844Z,15.47
2022-10-28T05:43:19.290Z,15.27
2022-10-28T05:45:54.257Z,15.32
2022-10-28T05:48:22.944Z,15.33
2022-10-28T05:50:51.530Z,14.99
2022-10-28T05:53:19.956Z,15.42
2022-10-28T05:55:50.050Z,15.23
2022-10-28T05:58:18.706Z,15.15
2022-10-28T06:00:47.048Z,15.33
2022-10-28T06:03:15.410Z,15.41
2022-10-28T06:05:46.288Z,15.41
2022-10-28T06:08:15.576Z,15.60
2022-10-28T06:10:55.343Z,15.41
2022-10-28T06:13:24.362Z,15.50
2022-10-28T06:15:53.411Z,15.56
2022-10-28T06:18:22.534Z,15.43
2022-10-28T06:20:55.254Z,15.53
2022-10-28T06:23:24.512Z,15.42
2022-10-28T06:25:58.945Z,15.40
2022-10-28T06:28:28.194Z,15.22
2022-10-28T06:31:02.147Z,15.46
2022-10-28T06:33:31.764Z,15.34
2022-10-28T06:36:00.982Z,15.13
2022-10-28T06:38:30.123Z,15.24
2022-10-28T06:41:00.043Z,15.45
2022-10-28T06:43:28.529Z,15.49
2022-10-28T06:46:00.837Z,15.47
2022-10-28T06:48:31.125Z,15.40
2022-10-28T06:50:59.918Z,15.70
2022-10-28T06:53:28.417Z,15.76
2022-10-28T06:55:58.566Z,15.73
2022-10-28T06:58:28.816Z,15.85
2022-10-28T07:00:57.652Z,15.84
2022-10-28T07:03:26.111Z,15.83
2022-10-28T07:05:54.546Z,15.79
2022-10-28T07:08:22.878Z,15.81
2022-10-28T07:10:58.009Z,15.35
2022-10-28T07:13:28.736Z,15.69
2022-10-28T07:15:58.643Z,15.55
2022-10-28T07:18:28.884Z,15.83
2022-10-28T07:20:59.969Z,15.86
2022-10-28T07:23:28.474Z,15.77
2022-10-28T07:25:58.048Z,15.42
2022-10-28T07:28:29.025Z,15.82
2022-10-28T07:31:01.934Z,15.87
2022-10-28T07:33:30.443Z,15.95
2022-10-28T07:35:58.725Z,15.92
2022-10-28T07:38:27.300Z,15.77
2022-10-28T07:40:55.665Z,15.92
2022-10-28T07:43:24.390Z,16.11
2022-10-28T07:45:59.158Z,16.14
2022-10-28T07:48:27.726Z,16.13
2022-10-28T07:50:56.082Z,16.30
2022-10-28T07:53:27.809Z,16.30
2022-10-28T07:55:58.590Z,15.99
2022-10-28T07:58:27.187Z,16.10
2022-10-28T08:00:56.282Z,16.41
2022-10-28T08:03:34.607Z,16.37
2022-10-28T08:06:09.703Z,16.27
2022-10-28T08:08:38.755Z,16.47
2022-10-28T08:11:11.665Z,16.01
2022-10-28T08:13:40.317Z,15.67
2022-10-28T08:16:09.879Z,16.42
2022-10-28T08:18:40.844Z,16.60
2022-10-28T08:21:11.391Z,16.52
2022-10-28T08:23:39.798Z,16.57
2022-10-28T08:26:08.253Z,16.59
2022-10-28T08:28:36.668Z,16.58
2022-10-28T08:31:09.594Z,16.62
2022-10-28T08:33:41.543Z,16.56
2022-10-28T08:36:11.915Z,16.68
2022-10-28T08:38:45.289Z,16.71
2022-10-28T08:41:28.978Z,16.61
2022-10-28T08:44:08.002Z,16.83
2022-10-28T08:46:51.885Z,16.86
2022-10-28T08:49:23.747Z,17.03
2022-10-28T08:51:56.830Z,16.22
2022-10-28T08:54:31.909Z,17.21
2022-10-28T08:57:02.858Z,17.22
2022-10-28T08:59:35.268Z,17.28
2022-10-28T09:02:13.319Z,17.17
2022-10-28T09:04:44.842Z,17.19
2022-10-28T09:07:18.133Z,17.08
2022-10-28T09:09:47.095Z,17.32
2022-10-28T09:12:29.019Z,17.37
2022-10-28T09:15:14.175Z,17.45
2022-10-28T09:17:54.128Z,17.48
2022-10-28T09:20:34.815Z,17.55
2022-10-28T09:23:11.850Z,17.62
2022-10-28T09:25:49.241Z,17.64
2022-10-28T09:28:29.909Z,17.61
2022-10-28T09:31:07.182Z,17.75
2022-10-28T09:33:58.484Z,17.82
2022-10-28T09:36:34.082Z,17.85
2022-10-28T09:39:05.468Z,17.88
2022-10-28T09:41:38.414Z,17.97
2022-10-28T09:44:15.265Z,18.01
2022-10-28T09:46:43.841Z,18.05
2022-10-28T09:49:18.134Z,18.12
2022-10-28T09:51:54.157Z,18.05
2022-10-28T09:54:32.408Z,18.21
2022-10-28T09:57:00.952Z,18.24
2022-10-28T09:59:29.905Z,18.27
2022-10-28T10:01:58.600Z,17.90
2022-10-28T10:04:31.342Z,18.44
2022-10-28T10:07:06.923Z,18.46
2022-10-28T10:09:37.425Z,18.03
2022-10-28T10:12:09.810Z,18.66
2022-10-28T10:14:42.303Z,18.74
2022-10-28T10:17:16.854Z,18.50
2022-10-28T10:20:01.363Z,19.03
2022-10-28T10:22:33.014Z,19.02
2022-10-28T10:25:01.710Z,19.12
2022-10-28T10:27:32.164Z,19.40
2022-10-28T10:30:00.811Z,19.57
2022-10-28T10:32:32.405Z,19.71
2022-10-28T10:35:07.396Z,19.85
2022-10-28T10:37:38.141Z,20.01
2022-10-28T10:40:20.590Z,20.16
2022-10-28T10:43:09.677Z,19.93
2022-10-28T10:45:38.422Z,20.33
2022-10-28T10:48:15.187Z,20.45
2022-10-28T10:50:45.803Z,20.52
2022-10-28T10:53:27.315Z,20.61
2022-10-28T10:56:00.868Z,20.71
2022-10-28T10:58:30.961Z,20.74
2022-10-28T11:01:02.425Z,20.90
2022-10-28T11:03:36.947Z,21.01
2022-10-28T11:06:24.797Z,21.16
2022-10-28T11:09:00.863Z,21.24
2022-10-28T11:11:37.201Z,21.23
2022-10-28T11:14:08.832Z,21.15
2022-10-28T11:16:49.606Z,21.00
2022-10-28T11:19:23.146Z,21.14
2022-10-28T11:22:05.864Z,21.05
2022-10-28T11:24:56.588Z,21.17
2022-10-28T11:27:36.145Z,21.24
2022-10-28T11:30:06.410Z,21.29
2022-10-28T11:33:01.421Z,21.33
2022-10-28T11:35:50.299Z,21.21
2022-10-28T11:38:33.681Z,21.40
2022-10-28T11:41:15.159Z,21.31
2022-10-28T11:43:55.262Z,21.41
2022-10-28T11:46:36.857Z,21.37
2022-10-28T11:49:32.430Z,21.42
2022-10-28T11:52:13.037Z,21.39
2022-10-28T11:54:55.433Z,21.29
2022-10-28T11:57:44.390Z,21.26
2022-10-28T12:00:29.125Z,21.26
2022-10-28T12:03:13.609Z,21.42
2022-10-28T12:05:48.997Z,21.31
2022-10-28T12:08:30.754Z,21.55
2022-10-28T12:11:12.368Z,21.33
2022-10-28T12:13:49.611Z,21.48
2022-10-28T12:16:26.209Z,21.50
2022-10-28T12:18:59.069Z,21.48
2022-10-28T12:24:07.471Z,21.25
2022-10-28T12:26:40.809Z,21.41
2022-10-28T12:29:19.195Z,21.33
2022-10-28T12:31:51.538Z,21.12
2022-10-28T12:34:26.406Z,21.18
2022-10-28T12:37:01.781Z,21.12
2022-10-28T12:39:36.195Z,21.15
2022-10-28T12:42:12.556Z,21.08
2022-10-28T12:44:43.514Z,21.04
2022-10-28T12:47:20.721Z,21.05
2022-10-28T12:50:04.259Z,21.00
2022-10-28T12:52:39.818Z,20.95
2022-10-28T12:55:20.413Z,20.90
2022-10-28T12:57:55.674Z,20.66
2022-10-28T13:00:29.542Z,20.68
2022-10-28T13:03:02.971Z,20.93
2022-10-28T13:05:38.954Z,20.90
2022-10-28T13:08:49.290Z,20.83
2022-10-28T13:12:07.277Z,20.75
2022-10-28T13:14:56.455Z,20.62
2022-10-28T13:17:41.520Z,20.61
2022-10-28T13:20:18.799Z,20.66
2022-10-28T13:22:56.344Z,19.95
2022-10-28T13:25:50.361Z,20.55
2022-10-28T13:28:22.202Z,20.49
2022-10-28T13:30:55.438Z,19.89
2022-10-28T13:33:27.006Z,20.42
2022-10-28T13:35:56.915Z,20.09
2022-10-28T13:38:28.285Z,20.40
2022-10-28T13:41:31.009Z,20.37
2022-10-28T13:44:27.325Z,20.27
2022-10-28T13:47:30.360Z,20.14
2022-10-28T13:50:33.638Z,20.02
2022-10-28T13:53:42.291Z,20.05
2022-10-28T13:56:43.770Z,20.03
2022-10-28T13:59:24.386Z,20.08
2022-10-28T14:02:02.261Z,20.03
2022-10-28T14:04:38.835Z,19.59
2022-10-28T14:07:30.438Z,19.91
2022-10-28T14:10:19.088Z,20.00
2022-10-28T14:12:51.558Z,19.99
2022-10-28T14:15:24.721Z,19.74
2022-10-28T14:18:04.915Z,19.74
2022-10-28T14:20:59.211Z,19.72
2022-10-28T14:24:08.609Z,19.80
2022-10-28T14:27:09.522Z,19.69
2022-10-28T14:29:45.658Z,19.37
2022-10-28T14:32:43.697Z,19.66
2022-10-28T14:35:22.333Z,19.57
2022-10-28T14:38:20.449Z,19.47
2022-10-28T14:40:52.215Z,19.32
2022-10-28T14:43:36.130Z,19.47
2022-10-28T14:46:11.907Z,19.22
2022-10-28T14:48:48.505Z,19.41
2022-10-28T14:51:20.994Z,19.37
2022-10-28T14:53:49.872Z,19.27
2022-10-28T14:59:01.049Z,19.20
2022-10-28T15:01:48.713Z,19.32
2022-10-28T15:04:17.759Z,19.18
2022-10-28T15:06:48.137Z,19.23
2022-10-28T15:09:22.485Z,19.22
2022-10-28T15:11:56.236Z,19.14
2022-10-28T15:14:37.676Z,19.20
2022-10-28T15:17:14.297Z,19.21
2022-10-28T15:19:42.909Z,18.97
2022-10-28T15:22:22.701Z,19.00
2022-10-28T15:24:55.671Z,18.89
2022-10-28T15:27:27.677Z,18.98
2022-10-28T15:29:56.957Z,18.80
2022-10-28T15:32:31.499Z,18.84
2022-10-28T15:35:00.598Z,18.43
2022-10-28T15:37:31.370Z,18.66
2022-10-28T15:40:21.107Z,18.71
2022-10-28T15:42:57.077Z,18.57
2022-10-28T15:45:27.777Z,18.54
2022-10-28T15:47:57.751Z,18.52
2022-10-28T15:50:32.273Z,18.20
2022-10-28T15:53:42.112Z,18.40
2022-10-28T15:56:26.131Z,18.31
2022-10-28T15:59:21.479Z,18.13
2022-10-28T16:01:49.960Z,18.33
2022-10-28T16:04:45.490Z,18.32
2022-10-28T16:07:14.066Z,18.28
2022-10-28T16:09:47.396Z,18.20
2022-10-28T16:12:17.333Z,18.30
2022-10-28T16:14:50.781Z,18.36
2022-10-28T16:17:23.294Z,18.20
2022-10-28T16:19:55.241Z,18.28
2022-10-28T16:22:26.082Z,17.82
2022-10-28T16:24:55.696Z,17.88
2022-10-28T16:27:25.985Z,18.19
2022-10-28T16:29:55.867Z,18.11
2022-10-28T16:32:30.867Z,18.05
2022-10-28T16:35:01.493Z,18.11
2022-10-28T16:37:31.802Z,17.86
2022-10-28T16:40:00.190Z,17.94
2022-10-28T16:42:28.931Z,17.73
2022-10-28T16:44:58.956Z,17.83
2022-10-28T16:47:28.068Z,17.44
2022-10-28T16:49:57.564Z,17.74
2022-10-28T16:52:28.749Z,17.60
2022-10-28T16:54:58.146Z,17.75
2022-10-28T16:57:27.674Z,17.81
2022-10-28T16:59:56.386Z,17.54
2022-10-28T17:02:30.072Z,17.74
2022-10-28T17:04:59.854Z,17.66
2022-10-28T17:07:29.396Z,17.60
2022-10-28T17:09:58.708Z,17.41
2022-10-28T17:12:29.452Z,17.52
2022-10-28T17:14:57.850Z,17.62
2022-10-28T17:17:27.867Z,16.93
2022-10-28T17:19:56.374Z,17.54
2022-10-28T17:22:24.914Z,17.32
2022-10-28T17:24:55.078Z,17.50
2022-10-28T17:27:23.873Z,17.42
2022-10-28T17:29:52.554Z,17.42
2022-10-28T17:32:21.173Z,17.46
2022-10-28T17:34:52.558Z,17.47
2022-10-28T17:37:21.201Z,17.38
2022-10-28T17:42:17.987Z,17.49
2022-10-28T17:44:56.589Z,16.59
2022-10-28T17:47:46.566Z,16.29
2022-10-28T17:50:16.884Z,16.36
2022-10-28T17:52:46.396Z,16.43
2022-10-28T17:55:15.338Z,17.45
2022-10-28T17:57:45.056Z,17.42
2022-10-28T18:00:14.948Z,17.43
2022-10-28T18:02:43.735Z,17.45
2022-10-28T18:05:12.562Z,17.44
2022-10-28T18:07:42.826Z,17.45
2022-10-28T18:10:11.665Z,17.13
2022-10-28T18:12:40.474Z,17.39
2022-10-28T18:15:11.162Z,16.84
2022-10-28T18:17:40.010Z,17.45
2022-10-28T18:20:10.115Z,17.23
2022-10-28T18:22:38.905Z,17.46
2022-10-28T18:25:10.110Z,17.44
2022-10-28T18:27:38.549Z,17.41
2022-10-28T18:30:08.687Z,17.49
2022-10-28T18:32:37.166Z,17.44
2022-10-28T18:35:06.123Z,17.44
2022-10-28T18:37:36.525Z,17.28
2022-10-28T18:40:06.929Z,17.07
2022-10-28T18:42:38.178Z,17.49
2022-10-28T18:45:09.157Z,15.64
2022-10-28T18:47:39.275Z,17.47
2022-10-28T18:50:10.152Z,17.50
2022-10-28T18:52:40.600Z,17.53
2022-10-28T18:55:11.804Z,17.47
2022-10-28T18:57:43.208Z,17.52
2022-10-28T19:00:17.973Z,17.46
2022-10-28T19:02:47.863Z,17.48
2022-10-28T19:05:17.971Z,17.41
2022-10-28T19:07:47.808Z,17.48
2022-10-28T19:10:18.025Z,17.31
2022-10-28T19:12:53.174Z,17.50
2022-10-28T19:15:23.156Z,17.44
2022-10-28T19:17:55.355Z,17.44
2022-10-28T19:20:26.013Z,17.37
2022-10-28T19:22:55.361Z,17.31
2022-10-28T19:25:25.309Z,17.31
2022-10-28T19:27:57.521Z,17.38
2022-10-28T19:30:26.799Z,17.30
2022-10-28T19:32:56.729Z,17.28
2022-10-28T19:35:27.656Z,17.35
2022-10-28T19:37:57.614Z,17.34
2022-10-28T19:40:27.333Z,17.04
2022-10-28T19:42:58.976Z,17.30
2022-10-28T19:45:29.094Z,17.19
2022-10-28T19:48:02.431Z,17.09
2022-10-28T19:50:32.148Z,17.21
2022-10-28T19:53:02.039Z,16.96
2022-10-28T19:55:32.247Z,17.23
2022-10-28T19:58:03.617Z,17.14
2022-10-28T20:00:33.420Z,17.08
2022-10-28T20:03:03.330Z,17.00
2022-10-28T20:05:34.740Z,17.04
2022-10-28T20:08:04.941Z,16.98
2022-10-28T20:10:35.216Z,16.95
2022-10-28T20:13:06.524Z,16.88
2022-10-28T20:15:36.810Z,16.09
2022-10-28T20:18:06.711Z,16.88
2022-10-28T20:20:37.877Z,16.85
2022-10-28T20:23:07.595Z,16.80
2022-10-28T20:25:37.262Z,16.82
2022-10-28T20:28:08.770Z,16.80
2022-10-28T20:30:39.015Z,16.78
2022-10-28T20:33:09.100Z,16.77
2022-10-28T20:35:38.711Z,16.72
2022-10-28T20:40:40.400Z,16.49
2022-10-28T20:43:10.270Z,16.28
2022-10-28T20:45:39.950Z,16.54
2022-10-28T20:48:08.871Z,16.51
2022-10-28T20:50:37.266Z,16.49
2022-10-28T20:53:05.767Z,16.47
2022-10-28T20:55:34.260Z,16.44
2022-10-28T20:58:02.691Z,16.43
2022-10-28T21:00:32.689Z,16.12
2022-10-28T21:03:01.711Z,16.38
2022-10-28T21:05:32.469Z,16.43
2022-10-28T21:08:01.300Z,16.41
2022-10-28T21:10:29.846Z,16.40
2022-10-28T21:12:58.546Z,16.37
2022-10-28T21:15:26.882Z,16.38
2022-10-28T21:17:57.063Z,16.22
2022-10-28T21:20:25.613Z,16.12
2022-10-28T21:22:54.294Z,16.35
2022-10-28T21:25:23.166Z,16.35
2022-10-28T21:27:51.822Z,16.10
2022-10-28T21:30:21.049Z,16.20
2022-10-28T21:32:49.474Z,16.31
2022-10-28T21:35:19.610Z,16.08
2022-10-28T21:37:48.086Z,16.27
2022-10-28T21:40:16.734Z,16.26
2022-10-28T21:42:50.047Z,15.94
2022-10-28T21:45:19.309Z,16.21
2022-10-28T21:47:48.480Z,16.18
2022-10-28T21:50:18.477Z,15.80
2022-10-28T21:52:47.261Z,16.15
2022-10-28T21:55:26.697Z,16.13
2022-10-28T21:58:05.453Z,16.09
2022-10-28T22:00:33.813Z,15.39
2022-10-28T22:03:02.248Z,16.09
2022-10-28T22:05:32.505Z,16.07
2022-10-28T22:08:03.197Z,16.06
2022-10-28T22:10:33.657Z,16.07
2022-10-28T22:13:02.415Z,16.05
2022-10-28T22:15:30.838Z,15.61
2022-10-28T22:17:59.223Z,16.07
2022-10-28T22:20:27.666Z,16.07
2022-10-28T22:22:57.779Z,16.09
2022-10-28T22:25:26.538Z,16.08
2022-10-28T22:27:55.298Z,16.10
2022-10-28T22:30:23.602Z,16.09
2022-10-28T22:32:52.190Z,16.10
2022-10-28T22:35:20.806Z,16.08
2022-10-28T22:37:49.129Z,16.11
2022-10-28T22:40:19.124Z,16.11
2022-10-28T22:42:47.487Z,16.09
2022-10-28T22:45:16.202Z,16.10
2022-10-28T22:47:44.567Z,16.08
2022-10-28T22:50:12.964Z,16.10
2022-10-28T22:52:41.358Z,16.09
2022-10-28T22:55:10.576Z,16.08
2022-10-28T22:57:41.236Z,16.08
2022-10-28T23:00:11.044Z,16.05
2022-10-28T23:02:39.907Z,16.05
2022-10-28T23:05:09.625Z,16.02
2022-10-28T23:07:37.925Z,15.99
2022-10-28T23:10:07.310Z,14.70
2022-10-28T23:12:36.030Z,15.95
2022-10-28T23:15:06.772Z,15.89
2022-10-28T23:17:35.198Z,15.39
2022-10-28T23:20:03.807Z,15.67
2022-10-28T23:22:32.236Z,15.84
2022-10-28T23:25:00.566Z,15.63
2022-10-28T23:27:28.866Z,15.82
2022-10-28T23:29:57.286Z,15.37
2022-10-28T23:32:27.433Z,15.80
2022-10-28T23:34:55.774Z,15.76
2022-10-28T23:37:24.162Z,15.72
2022-10-28T23:39:52.541Z,15.70
2022-10-28T23:42:21.230Z,14.96
2022-10-28T23:44:49.557Z,15.63
2022-10-28T23:47:18.114Z,15.51
2022-10-28T23:49:47.888Z,15.55
2022-10-28T23:52:16.311Z,15.53
2022-10-28T23:54:45.043Z,15.49
2022-10-28T23:57:13.410Z,15.43
2022-10-28T23:59:41.797Z,15.39
